sensor_id;sensor_type;location;lat;lon;timestamp;P1;durP1;ratioP1;P2;durP2;ratioP2
47429;SDS011;33181;49.246;7.372;2023-02-28T00:00:50;6.30;;;3.87;;
47429;SDS011;33181;49.246;7.372;2023-02-28T00:03:16;4.60;;;3.83;;
47429;SDS011;33181;49.246;7.372;2023-02-28T00:05:42;5.00;;;4.00;;
47429;SDS011;33181;49.246;7.372;2023-02-28T00:08:10;4.60;;;3.70;;
47429;SDS011;33181;49.246;7.372;2023-02-28T00:10:38;3.93;;;3.50;;
47429;SDS011;33181;49.246;7.372;2023-02-28T00:13:04;4.00;;;3.50;;
47429;SDS011;33181;49.246;7.372;2023-02-28T00:15:32;5.27;;;3.83;;
47429;SDS011;33181;49.246;7.372;2023-02-28T00:17:58;5.60;;;4.00;;
47429;SDS011;33181;49.246;7.372;2023-02-28T00:20:24;4.07;;;3.67;;
47429;SDS011;33181;49.246;7.372;2023-02-28T00:22:52;4.90;;;4.00;;
47429;SDS011;33181;49.246;7.372;2023-02-28T00:25:19;5.37;;;4.17;;
47429;SDS011;33181;49.246;7.372;2023-02-28T00:27:48;4.20;;;3.80;;
47429;SDS011;33181;49.246;7.372;2023-02-28T00:30:18;4.40;;;3.90;;
47429;SDS011;33181;49.246;7.372;2023-02-28T00:32:46;4.20;;;3.80;;
47429;SDS011;33181;49.246;7.372;2023-02-28T00:35:13;5.30;;;3.90;;
47429;SDS011;33181;49.246;7.372;2023-02-28T00:37:39;4.20;;;3.80;;
47429;SDS011;33181;49.246;7.372;2023-02-28T00:40:05;4.20;;;3.70;;
47429;SDS011;33181;49.246;7.372;2023-02-28T00:42:32;4.13;;;3.73;;
47429;SDS011;33181;49.246;7.372;2023-02-28T00:44:59;4.83;;;3.70;;
47429;SDS011;33181;49.246;7.372;2023-02-28T00:47:25;4.77;;;3.80;;
47429;SDS011;33181;49.246;7.372;2023-02-28T00:49:51;4.50;;;3.90;;
47429;SDS011;33181;49.246;7.372;2023-02-28T00:52:16;3.90;;;3.60;;
47429;SDS011;33181;49.246;7.372;2023-02-28T00:54:42;5.07;;;4.20;;
47429;SDS011;33181;49.246;7.372;2023-02-28T00:57:08;6.17;;;4.00;;
47429;SDS011;33181;49.246;7.372;2023-02-28T00:59:34;4.27;;;3.50;;
47429;SDS011;33181;49.246;7.372;2023-02-28T01:02:00;4.50;;;3.70;;
47429;SDS011;33181;49.246;7.372;2023-02-28T01:04:25;5.80;;;4.13;;
47429;SDS011;33181;49.246;7.372;2023-02-28T01:06:51;4.77;;;3.70;;
47429;SDS011;33181;49.246;7.372;2023-02-28T01:09:17;4.53;;;3.87;;
47429;SDS011;33181;49.246;7.372;2023-02-28T01:11:43;4.43;;;3.80;;
47429;SDS011;33181;49.246;7.372;2023-02-28T01:14:11;4.87;;;4.23;;
47429;SDS011;33181;49.246;7.372;2023-02-28T01:16:40;4.17;;;3.77;;
47429;SDS011;33181;49.246;7.372;2023-02-28T01:19:06;4.20;;;3.80;;
47429;SDS011;33181;49.246;7.372;2023-02-28T01:21:32;5.23;;;3.70;;
47429;SDS011;33181;49.246;7.372;2023-02-28T01:23:57;4.30;;;3.87;;
47429;SDS011;33181;49.246;7.372;2023-02-28T01:26:23;4.87;;;3.67;;
47429;SDS011;33181;49.246;7.372;2023-02-28T01:28:50;6.30;;;4.20;;
47429;SDS011;33181;49.246;7.372;2023-02-28T01:31:17;4.50;;;3.70;;
47429;SDS011;33181;49.246;7.372;2023-02-28T01:33:44;6.67;;;4.23;;
47429;SDS011;33181;49.246;7.372;2023-02-28T01:36:15;5.23;;;4.00;;
47429;SDS011;33181;49.246;7.372;2023-02-28T01:38:44;5.30;;;4.17;;
47429;SDS011;33181;49.246;7.372;2023-02-28T01:41:12;5.60;;;3.87;;
47429;SDS011;33181;49.246;7.372;2023-02-28T01:44:02;4.87;;;3.90;;
47429;SDS011;33181;49.246;7.372;2023-02-28T01:46:52;5.30;;;4.20;;
47429;SDS011;33181;49.246;7.372;2023-02-28T01:49:18;5.10;;;4.27;;
47429;SDS011;33181;49.246;7.372;2023-02-28T01:51:54;4.80;;;4.30;;
47429;SDS011;33181;49.246;7.372;2023-02-28T01:54:31;6.00;;;4.60;;
47429;SDS011;33181;49.246;7.372;2023-02-28T01:57:08;4.40;;;4.00;;
47429;SDS011;33181;49.246;7.372;2023-02-28T01:59:41;5.10;;;4.17;;
47429;SDS011;33181;49.246;7.372;2023-02-28T02:02:16;8.80;;;4.23;;
47429;SDS011;33181;49.246;7.372;2023-02-28T02:04:53;5.13;;;4.40;;
47429;SDS011;33181;49.246;7.372;2023-02-28T02:07:21;6.43;;;4.30;;
47429;SDS011;33181;49.246;7.372;2023-02-28T02:09:50;5.60;;;4.40;;
47429;SDS011;33181;49.246;7.372;2023-02-28T02:18:38;4.97;;;4.40;;
47429;SDS011;33181;49.246;7.372;2023-02-28T02:33:23;5.37;;;4.60;;
47429;SDS011;33181;49.246;7.372;2023-02-28T02:44:42;5.20;;;4.60;;
47429;SDS011;33181;49.246;7.372;2023-02-28T02:47:18;5.73;;;4.77;;
47429;SDS011;33181;49.246;7.372;2023-02-28T02:49:50;6.07;;;4.37;;
47429;SDS011;33181;49.246;7.372;2023-02-28T02:52:21;5.33;;;4.80;;
47429;SDS011;33181;49.246;7.372;2023-02-28T02:54:54;5.70;;;4.73;;
47429;SDS011;33181;49.246;7.372;2023-02-28T02:57:27;6.07;;;5.03;;
47429;SDS011;33181;49.246;7.372;2023-02-28T03:00:03;5.90;;;4.90;;
47429;SDS011;33181;49.246;7.372;2023-02-28T03:02:33;7.23;;;5.00;;
47429;SDS011;33181;49.246;7.372;2023-02-28T03:05:07;5.60;;;4.93;;
47429;SDS011;33181;49.246;7.372;2023-02-28T03:07:46;6.23;;;5.20;;
47429;SDS011;33181;49.246;7.372;2023-02-28T03:10:28;7.30;;;5.30;;
47429;SDS011;33181;49.246;7.372;2023-02-28T03:13:13;6.50;;;5.20;;
47429;SDS011;33181;49.246;7.372;2023-02-28T03:21:46;6.67;;;5.30;;
47429;SDS011;33181;49.246;7.372;2023-02-28T03:24:38;7.13;;;5.10;;
47429;SDS011;33181;49.246;7.372;2023-02-28T03:27:09;7.60;;;5.50;;
47429;SDS011;33181;49.246;7.372;2023-02-28T03:29:49;8.67;;;5.90;;
47429;SDS011;33181;49.246;7.372;2023-02-28T03:32:22;6.90;;;5.37;;
47429;SDS011;33181;49.246;7.372;2023-02-28T03:34:54;8.17;;;5.40;;
47429;SDS011;33181;49.246;7.372;2023-02-28T03:37:30;5.90;;;5.30;;
47429;SDS011;33181;49.246;7.372;2023-02-28T03:40:03;7.60;;;5.70;;
47429;SDS011;33181;49.246;7.372;2023-02-28T03:42:40;6.67;;;5.60;;
47429;SDS011;33181;49.246;7.372;2023-02-28T03:45:10;6.03;;;5.43;;
47429;SDS011;33181;49.246;7.372;2023-02-28T03:47:44;7.60;;;5.60;;
47429;SDS011;33181;49.246;7.372;2023-02-28T03:50:32;7.73;;;6.20;;
47429;SDS011;33181;49.246;7.372;2023-02-28T03:53:25;9.53;;;5.57;;
47429;SDS011;33181;49.246;7.372;2023-02-28T03:56:09;6.43;;;5.57;;
47429;SDS011;33181;49.246;7.372;2023-02-28T03:58:49;6.50;;;5.80;;
47429;SDS011;33181;49.246;7.372;2023-02-28T04:01:32;9.73;;;6.30;;
47429;SDS011;33181;49.246;7.372;2023-02-28T04:04:02;8.63;;;6.77;;
47429;SDS011;33181;49.246;7.372;2023-02-28T04:06:30;8.10;;;6.40;;
47429;SDS011;33181;49.246;7.372;2023-02-28T04:08:58;7.40;;;6.20;;
47429;SDS011;33181;49.246;7.372;2023-02-28T04:14:06;9.07;;;6.70;;
47429;SDS011;33181;49.246;7.372;2023-02-28T04:16:35;9.70;;;6.60;;
47429;SDS011;33181;49.246;7.372;2023-02-28T04:19:06;8.03;;;6.40;;
47429;SDS011;33181;49.246;7.372;2023-02-28T04:21:35;8.07;;;6.23;;
47429;SDS011;33181;49.246;7.372;2023-02-28T04:24:05;9.40;;;6.97;;
47429;SDS011;33181;49.246;7.372;2023-02-28T04:26:34;10.03;;;6.10;;
47429;SDS011;33181;49.246;7.372;2023-02-28T04:29:03;9.87;;;6.70;;
47429;SDS011;33181;49.246;7.372;2023-02-28T04:31:30;11.73;;;7.33;;
47429;SDS011;33181;49.246;7.372;2023-02-28T04:33:57;9.77;;;7.03;;
47429;SDS011;33181;49.246;7.372;2023-02-28T04:36:22;10.60;;;6.97;;
47429;SDS011;33181;49.246;7.372;2023-02-28T04:38:51;12.07;;;7.00;;
47429;SDS011;33181;49.246;7.372;2023-02-28T04:41:17;10.70;;;6.73;;
47429;SDS011;33181;49.246;7.372;2023-02-28T04:43:43;9.07;;;6.90;;
47429;SDS011;33181;49.246;7.372;2023-02-28T04:46:09;9.60;;;6.07;;
47429;SDS011;33181;49.246;7.372;2023-02-28T04:48:37;10.53;;;6.57;;
47429;SDS011;33181;49.246;7.372;2023-02-28T04:51:05;7.43;;;6.23;;
47429;SDS011;33181;49.246;7.372;2023-02-28T04:53:37;10.40;;;6.27;;
47429;SDS011;33181;49.246;7.372;2023-02-28T04:56:05;12.93;;;7.17;;
47429;SDS011;33181;49.246;7.372;2023-02-28T04:58:34;9.83;;;6.90;;
47429;SDS011;33181;49.246;7.372;2023-02-28T05:01:03;10.07;;;6.37;;
47429;SDS011;33181;49.246;7.372;2023-02-28T05:03:37;10.90;;;6.90;;
47429;SDS011;33181;49.246;7.372;2023-02-28T05:06:05;11.93;;;6.23;;
47429;SDS011;33181;49.246;7.372;2023-02-28T05:08:32;9.07;;;6.57;;
47429;SDS011;33181;49.246;7.372;2023-02-28T05:10:58;8.67;;;6.53;;
47429;SDS011;33181;49.246;7.372;2023-02-28T05:13:28;8.47;;;6.67;;
47429;SDS011;33181;49.246;7.372;2023-02-28T05:15:54;9.73;;;7.00;;
47429;SDS011;33181;49.246;7.372;2023-02-28T05:18:20;9.00;;;6.20;;
47429;SDS011;33181;49.246;7.372;2023-02-28T05:20:46;8.03;;;6.60;;
47429;SDS011;33181;49.246;7.372;2023-02-28T05:23:12;7.30;;;5.90;;
47429;SDS011;33181;49.246;7.372;2023-02-28T05:25:39;9.27;;;6.70;;
47429;SDS011;33181;49.246;7.372;2023-02-28T05:28:06;9.03;;;6.40;;
47429;SDS011;33181;49.246;7.372;2023-02-28T05:30:32;10.90;;;6.60;;
47429;SDS011;33181;49.246;7.372;2023-02-28T05:32:58;11.03;;;7.20;;
47429;SDS011;33181;49.246;7.372;2023-02-28T05:35:24;9.37;;;6.90;;
47429;SDS011;33181;49.246;7.372;2023-02-28T05:37:51;10.83;;;6.90;;
47429;SDS011;33181;49.246;7.372;2023-02-28T05:40:17;9.40;;;6.67;;
47429;SDS011;33181;49.246;7.372;2023-02-28T05:42:45;8.40;;;6.50;;
47429;SDS011;33181;49.246;7.372;2023-02-28T05:45:11;9.63;;;6.70;;
47429;SDS011;33181;49.246;7.372;2023-02-28T05:47:40;8.70;;;6.80;;
47429;SDS011;33181;49.246;7.372;2023-02-28T05:50:05;10.30;;;7.30;;
47429;SDS011;33181;49.246;7.372;2023-02-28T05:52:32;10.33;;;7.50;;
47429;SDS011;33181;49.246;7.372;2023-02-28T05:54:58;12.63;;;7.50;;
47429;SDS011;33181;49.246;7.372;2023-02-28T05:57:24;11.23;;;6.80;;
47429;SDS011;33181;49.246;7.372;2023-02-28T05:59:50;13.43;;;7.10;;
47429;SDS011;33181;49.246;7.372;2023-02-28T06:02:16;11.57;;;7.53;;
47429;SDS011;33181;49.246;7.372;2023-02-28T06:04:43;12.73;;;7.80;;
47429;SDS011;33181;49.246;7.372;2023-02-28T06:07:09;12.80;;;7.63;;
47429;SDS011;33181;49.246;7.372;2023-02-28T06:09:35;12.80;;;8.10;;
47429;SDS011;33181;49.246;7.372;2023-02-28T06:12:02;11.17;;;8.10;;
47429;SDS011;33181;49.246;7.372;2023-02-28T06:14:31;12.07;;;7.50;;
47429;SDS011;33181;49.246;7.372;2023-02-28T06:16:58;15.53;;;7.60;;
47429;SDS011;33181;49.246;7.372;2023-02-28T06:19:25;13.73;;;8.63;;
47429;SDS011;33181;49.246;7.372;2023-02-28T06:21:51;11.10;;;7.60;;
47429;SDS011;33181;49.246;7.372;2023-02-28T06:24:19;11.83;;;7.63;;
47429;SDS011;33181;49.246;7.372;2023-02-28T06:26:45;13.70;;;8.27;;
47429;SDS011;33181;49.246;7.372;2023-02-28T06:29:11;17.13;;;8.40;;
47429;SDS011;33181;49.246;7.372;2023-02-28T06:31:43;12.07;;;7.90;;
47429;SDS011;33181;49.246;7.372;2023-02-28T06:34:10;11.77;;;7.47;;
47429;SDS011;33181;49.246;7.372;2023-02-28T06:36:37;11.13;;;8.13;;
47429;SDS011;33181;49.246;7.372;2023-02-28T06:39:04;10.23;;;7.43;;
47429;SDS011;33181;49.246;7.372;2023-02-28T06:41:30;10.20;;;7.73;;
47429;SDS011;33181;49.246;7.372;2023-02-28T06:43:56;11.13;;;8.00;;
47429;SDS011;33181;49.246;7.372;2023-02-28T06:46:22;12.30;;;7.90;;
47429;SDS011;33181;49.246;7.372;2023-02-28T06:48:48;12.40;;;7.60;;
47429;SDS011;33181;49.246;7.372;2023-02-28T06:51:17;13.37;;;7.50;;
47429;SDS011;33181;49.246;7.372;2023-02-28T06:53:47;10.67;;;7.60;;
47429;SDS011;33181;49.246;7.372;2023-02-28T06:56:13;9.73;;;7.23;;
47429;SDS011;33181;49.246;7.372;2023-02-28T06:58:41;11.60;;;7.60;;
47429;SDS011;33181;49.246;7.372;2023-02-28T07:01:07;13.07;;;8.13;;
47429;SDS011;33181;49.246;7.372;2023-02-28T07:03:34;17.70;;;8.23;;
47429;SDS011;33181;49.246;7.372;2023-02-28T07:06:01;13.37;;;8.10;;
47429;SDS011;33181;49.246;7.372;2023-02-28T07:08:27;11.70;;;8.00;;
47429;SDS011;33181;49.246;7.372;2023-02-28T07:10:54;13.17;;;7.70;;
47429;SDS011;33181;49.246;7.372;2023-02-28T07:13:21;10.97;;;7.80;;
47429;SDS011;33181;49.246;7.372;2023-02-28T07:15:54;10.27;;;7.13;;
47429;SDS011;33181;49.246;7.372;2023-02-28T07:18:22;10.90;;;7.87;;
47429;SDS011;33181;49.246;7.372;2023-02-28T07:20:47;9.30;;;7.20;;
47429;SDS011;33181;49.246;7.372;2023-02-28T07:23:13;12.73;;;8.20;;
47429;SDS011;33181;49.246;7.372;2023-02-28T07:25:39;13.80;;;8.10;;
47429;SDS011;33181;49.246;7.372;2023-02-28T07:28:05;12.33;;;8.10;;
47429;SDS011;33181;49.246;7.372;2023-02-28T07:30:30;10.40;;;7.40;;
47429;SDS011;33181;49.246;7.372;2023-02-28T07:32:56;14.40;;;9.10;;
47429;SDS011;33181;49.246;7.372;2023-02-28T07:35:22;16.43;;;8.40;;
47429;SDS011;33181;49.246;7.372;2023-02-28T07:37:48;12.70;;;8.70;;
47429;SDS011;33181;49.246;7.372;2023-02-28T07:40:14;12.13;;;8.57;;
47429;SDS011;33181;49.246;7.372;2023-02-28T07:42:40;15.27;;;8.50;;
47429;SDS011;33181;49.246;7.372;2023-02-28T07:45:07;13.73;;;8.17;;
47429;SDS011;33181;49.246;7.372;2023-02-28T07:47:36;12.20;;;8.00;;
47429;SDS011;33181;49.246;7.372;2023-02-28T07:50:07;11.93;;;8.63;;
47429;SDS011;33181;49.246;7.372;2023-02-28T07:52:36;12.53;;;7.83;;
47429;SDS011;33181;49.246;7.372;2023-02-28T07:55:04;11.77;;;8.13;;
47429;SDS011;33181;49.246;7.372;2023-02-28T07:57:32;12.87;;;8.50;;
47429;SDS011;33181;49.246;7.372;2023-02-28T07:59:58;13.90;;;8.40;;
47429;SDS011;33181;49.246;7.372;2023-02-28T08:02:23;10.53;;;7.33;;
47429;SDS011;33181;49.246;7.372;2023-02-28T08:04:50;13.57;;;8.30;;
47429;SDS011;33181;49.246;7.372;2023-02-28T08:07:16;11.83;;;8.23;;
47429;SDS011;33181;49.246;7.372;2023-02-28T08:09:43;12.83;;;8.27;;
47429;SDS011;33181;49.246;7.372;2023-02-28T08:12:09;10.13;;;7.17;;
47429;SDS011;33181;49.246;7.372;2023-02-28T08:14:36;12.77;;;8.00;;
47429;SDS011;33181;49.246;7.372;2023-02-28T08:17:05;12.03;;;7.70;;
47429;SDS011;33181;49.246;7.372;2023-02-28T08:19:31;10.40;;;7.47;;
47429;SDS011;33181;49.246;7.372;2023-02-28T08:21:57;10.87;;;8.17;;
47429;SDS011;33181;49.246;7.372;2023-02-28T08:24:23;11.73;;;8.40;;
47429;SDS011;33181;49.246;7.372;2023-02-28T08:26:49;13.03;;;8.80;;
47429;SDS011;33181;49.246;7.372;2023-02-28T08:29:15;12.60;;;7.47;;
47429;SDS011;33181;49.246;7.372;2023-02-28T08:31:41;10.83;;;7.57;;
47429;SDS011;33181;49.246;7.372;2023-02-28T08:34:12;14.13;;;8.23;;
47429;SDS011;33181;49.246;7.372;2023-02-28T08:36:40;10.00;;;7.73;;
47429;SDS011;33181;49.246;7.372;2023-02-28T08:39:06;11.30;;;7.80;;
47429;SDS011;33181;49.246;7.372;2023-02-28T08:41:32;11.97;;;7.40;;
47429;SDS011;33181;49.246;7.372;2023-02-28T08:43:58;15.10;;;8.57;;
47429;SDS011;33181;49.246;7.372;2023-02-28T08:46:25;10.97;;;7.80;;
47429;SDS011;33181;49.246;7.372;2023-02-28T08:48:51;10.50;;;7.70;;
47429;SDS011;33181;49.246;7.372;2023-02-28T08:51:24;12.60;;;7.80;;
47429;SDS011;33181;49.246;7.372;2023-02-28T08:54:00;12.47;;;7.90;;
47429;SDS011;33181;49.246;7.372;2023-02-28T08:56:26;12.97;;;7.77;;
47429;SDS011;33181;49.246;7.372;2023-02-28T08:58:54;10.30;;;7.10;;
47429;SDS011;33181;49.246;7.372;2023-02-28T09:01:23;12.83;;;7.77;;
47429;SDS011;33181;49.246;7.372;2023-02-28T09:03:54;12.70;;;8.13;;
47429;SDS011;33181;49.246;7.372;2023-02-28T09:06:22;11.77;;;8.00;;
47429;SDS011;33181;49.246;7.372;2023-02-28T09:08:50;10.70;;;8.00;;
47429;SDS011;33181;49.246;7.372;2023-02-28T09:11:17;11.37;;;7.90;;
47429;SDS011;33181;49.246;7.372;2023-02-28T09:13:44;10.63;;;7.70;;
47429;SDS011;33181;49.246;7.372;2023-02-28T09:16:12;10.87;;;7.93;;
47429;SDS011;33181;49.246;7.372;2023-02-28T09:18:41;13.23;;;8.40;;
47429;SDS011;33181;49.246;7.372;2023-02-28T09:21:07;13.13;;;8.20;;
47429;SDS011;33181;49.246;7.372;2023-02-28T09:23:38;11.63;;;7.33;;
47429;SDS011;33181;49.246;7.372;2023-02-28T09:26:04;10.67;;;8.00;;
47429;SDS011;33181;49.246;7.372;2023-02-28T09:28:31;15.20;;;7.80;;
47429;SDS011;33181;49.246;7.372;2023-02-28T09:30:57;11.37;;;7.57;;
47429;SDS011;33181;49.246;7.372;2023-02-28T09:33:24;10.50;;;7.50;;
47429;SDS011;33181;49.246;7.372;2023-02-28T09:35:51;10.70;;;7.47;;
47429;SDS011;33181;49.246;7.372;2023-02-28T09:38:25;10.47;;;7.70;;
47429;SDS011;33181;49.246;7.372;2023-02-28T09:40:55;14.47;;;7.93;;
47429;SDS011;33181;49.246;7.372;2023-02-28T09:43:35;11.63;;;8.13;;
47429;SDS011;33181;49.246;7.372;2023-02-28T09:46:08;13.40;;;7.97;;
47429;SDS011;33181;49.246;7.372;2023-02-28T09:49:05;10.57;;;7.33;;
47429;SDS011;33181;49.246;7.372;2023-02-28T09:51:51;12.70;;;8.00;;
47429;SDS011;33181;49.246;7.372;2023-02-28T09:54:24;12.27;;;8.00;;
47429;SDS011;33181;49.246;7.372;2023-02-28T09:57:17;11.60;;;8.13;;
47429;SDS011;33181;49.246;7.372;2023-02-28T10:08:26;11.30;;;8.17;;
47429;SDS011;33181;49.246;7.372;2023-02-28T10:11:00;9.33;;;7.10;;
47429;SDS011;33181;49.246;7.372;2023-02-28T10:13:36;11.43;;;7.80;;
47429;SDS011;33181;49.246;7.372;2023-02-28T10:16:35;11.80;;;8.30;;
47429;SDS011;33181;49.246;7.372;2023-02-28T10:24:43;12.10;;;8.03;;
47429;SDS011;33181;49.246;7.372;2023-02-28T10:27:24;12.37;;;8.23;;
47429;SDS011;33181;49.246;7.372;2023-02-28T10:29:57;12.03;;;8.07;;
47429;SDS011;33181;49.246;7.372;2023-02-28T10:32:27;12.43;;;8.40;;
47429;SDS011;33181;49.246;7.372;2023-02-28T10:35:01;11.80;;;7.97;;
47429;SDS011;33181;49.246;7.372;2023-02-28T10:37:39;11.17;;;8.43;;
47429;SDS011;33181;49.246;7.372;2023-02-28T10:40:30;12.57;;;8.20;;
47429;SDS011;33181;49.246;7.372;2023-02-28T10:43:14;10.67;;;8.30;;
47429;SDS011;33181;49.246;7.372;2023-02-28T10:48:59;11.90;;;8.57;;
47429;SDS011;33181;49.246;7.372;2023-02-28T10:51:38;11.67;;;8.00;;
47429;SDS011;33181;49.246;7.372;2023-02-28T10:54:12;13.80;;;9.43;;
47429;SDS011;33181;49.246;7.372;2023-02-28T10:57:15;12.60;;;8.80;;
47429;SDS011;33181;49.246;7.372;2023-02-28T10:59:44;13.30;;;9.13;;
47429;SDS011;33181;49.246;7.372;2023-02-28T11:02:30;12.97;;;9.33;;
47429;SDS011;33181;49.246;7.372;2023-02-28T11:04:59;13.83;;;9.30;;
47429;SDS011;33181;49.246;7.372;2023-02-28T11:07:25;11.90;;;8.93;;
47429;SDS011;33181;49.246;7.372;2023-02-28T11:09:53;14.27;;;9.30;;
47429;SDS011;33181;49.246;7.372;2023-02-28T11:12:26;13.13;;;8.97;;
47429;SDS011;33181;49.246;7.372;2023-02-28T11:15:06;14.27;;;9.70;;
47429;SDS011;33181;49.246;7.372;2023-02-28T11:20:26;13.00;;;8.90;;
47429;SDS011;33181;49.246;7.372;2023-02-28T11:22:55;12.10;;;8.83;;
47429;SDS011;33181;49.246;7.372;2023-02-28T11:27:56;13.03;;;9.43;;
47429;SDS011;33181;49.246;7.372;2023-02-28T11:30:37;12.90;;;9.27;;
47429;SDS011;33181;49.246;7.372;2023-02-28T11:36:04;15.60;;;9.80;;
47429;SDS011;33181;49.246;7.372;2023-02-28T11:38:43;11.30;;;8.40;;
47429;SDS011;33181;49.246;7.372;2023-02-28T11:41:13;16.37;;;9.73;;
47429;SDS011;33181;49.246;7.372;2023-02-28T11:47:42;14.03;;;8.73;;
47429;SDS011;33181;49.246;7.372;2023-02-28T11:56:17;12.07;;;8.97;;
47429;SDS011;33181;49.246;7.372;2023-02-28T12:04:49;14.80;;;9.53;;
47429;SDS011;33181;49.246;7.372;2023-02-28T12:07:42;12.50;;;9.00;;
47429;SDS011;33181;49.246;7.372;2023-02-28T12:10:36;14.10;;;9.67;;
47429;SDS011;33181;49.246;7.372;2023-02-28T12:16:32;13.80;;;9.33;;
47429;SDS011;33181;49.246;7.372;2023-02-28T12:19:20;15.47;;;9.73;;
47429;SDS011;33181;49.246;7.372;2023-02-28T12:27:38;14.30;;;10.00;;
47429;SDS011;33181;49.246;7.372;2023-02-28T12:33:07;14.23;;;9.83;;
47429;SDS011;33181;49.246;7.372;2023-02-28T12:38:28;14.07;;;9.97;;
47429;SDS011;33181;49.246;7.372;2023-02-28T12:43:46;13.70;;;9.53;;
47429;SDS011;33181;49.246;7.372;2023-02-28T12:46:29;13.70;;;9.13;;
47429;SDS011;33181;49.246;7.372;2023-02-28T12:49:04;13.73;;;9.30;;
47429;SDS011;33181;49.246;7.372;2023-02-28T12:51:41;15.37;;;9.77;;
47429;SDS011;33181;49.246;7.372;2023-02-28T12:57:56;12.87;;;8.80;;
47429;SDS011;33181;49.246;7.372;2023-02-28T13:00:20;14.60;;;9.50;;
47429;SDS011;33181;49.246;7.372;2023-02-28T13:09:05;13.63;;;9.00;;
47429;SDS011;33181;49.246;7.372;2023-02-28T13:14:18;14.50;;;10.13;;
47429;SDS011;33181;49.246;7.372;2023-02-28T13:19:41;13.43;;;9.50;;
47429;SDS011;33181;49.246;7.372;2023-02-28T13:22:20;11.67;;;9.33;;
47429;SDS011;33181;49.246;7.372;2023-02-28T13:25:50;12.43;;;9.23;;
47429;SDS011;33181;49.246;7.372;2023-02-28T13:28:07;15.87;;;9.73;;
47429;SDS011;33181;49.246;7.372;2023-02-28T13:31:00;15.50;;;10.70;;
47429;SDS011;33181;49.246;7.372;2023-02-28T13:38:57;14.93;;;9.97;;
47429;SDS011;33181;49.246;7.372;2023-02-28T13:44:16;14.40;;;9.10;;
47429;SDS011;33181;49.246;7.372;2023-02-28T13:49:32;12.80;;;9.33;;
47429;SDS011;33181;49.246;7.372;2023-02-28T13:54:42;14.93;;;9.40;;
47429;SDS011;33181;49.246;7.372;2023-02-28T14:08:45;12.13;;;9.03;;
47429;SDS011;33181;49.246;7.372;2023-02-28T14:11:33;13.67;;;9.50;;
47429;SDS011;33181;49.246;7.372;2023-02-28T14:14:02;14.40;;;10.07;;
47429;SDS011;33181;49.246;7.372;2023-02-28T14:16:37;15.33;;;9.90;;
47429;SDS011;33181;49.246;7.372;2023-02-28T14:25:00;14.37;;;10.40;;
47429;SDS011;33181;49.246;7.372;2023-02-28T14:37:20;14.63;;;9.83;;
47429;SDS011;33181;49.246;7.372;2023-02-28T14:39:57;17.00;;;9.80;;
47429;SDS011;33181;49.246;7.372;2023-02-28T14:42:33;13.20;;;9.10;;
47429;SDS011;33181;49.246;7.372;2023-02-28T14:45:03;16.07;;;9.90;;
47429;SDS011;33181;49.246;7.372;2023-02-28T14:47:32;14.80;;;9.60;;
47429;SDS011;33181;49.246;7.372;2023-02-28T14:50:00;16.90;;;10.57;;
47429;SDS011;33181;49.246;7.372;2023-02-28T14:52:29;14.27;;;10.00;;
47429;SDS011;33181;49.246;7.372;2023-02-28T14:54:58;14.77;;;9.83;;
47429;SDS011;33181;49.246;7.372;2023-02-28T14:57:39;14.73;;;9.40;;
47429;SDS011;33181;49.246;7.372;2023-02-28T15:02:53;18.23;;;10.20;;
47429;SDS011;33181;49.246;7.372;2023-02-28T15:10:37;14.40;;;9.83;;
47429;SDS011;33181;49.246;7.372;2023-02-28T15:13:05;15.23;;;10.40;;
47429;SDS011;33181;49.246;7.372;2023-02-28T15:15:47;13.70;;;9.70;;
47429;SDS011;33181;49.246;7.372;2023-02-28T15:20:45;14.97;;;10.57;;
47429;SDS011;33181;49.246;7.372;2023-02-28T15:23:11;14.87;;;9.77;;
47429;SDS011;33181;49.246;7.372;2023-02-28T15:25:42;14.67;;;10.50;;
47429;SDS011;33181;49.246;7.372;2023-02-28T15:28:10;16.47;;;10.80;;
47429;SDS011;33181;49.246;7.372;2023-02-28T15:30:54;14.70;;;11.10;;
47429;SDS011;33181;49.246;7.372;2023-02-28T15:33:29;15.33;;;9.63;;
47429;SDS011;33181;49.246;7.372;2023-02-28T15:36:10;14.77;;;9.77;;
47429;SDS011;33181;49.246;7.372;2023-02-28T15:38:45;13.97;;;9.53;;
47429;SDS011;33181;49.246;7.372;2023-02-28T15:41:30;13.70;;;9.77;;
47429;SDS011;33181;49.246;7.372;2023-02-28T15:47:02;14.90;;;10.40;;
47429;SDS011;33181;49.246;7.372;2023-02-28T15:49:50;16.23;;;10.37;;
47429;SDS011;33181;49.246;7.372;2023-02-28T15:52:40;13.73;;;10.10;;
47429;SDS011;33181;49.246;7.372;2023-02-28T15:55:10;16.37;;;9.70;;
47429;SDS011;33181;49.246;7.372;2023-02-28T15:57:56;17.60;;;11.03;;
47429;SDS011;33181;49.246;7.372;2023-02-28T16:00:26;17.37;;;10.57;;
47429;SDS011;33181;49.246;7.372;2023-02-28T16:02:54;16.27;;;10.47;;
47429;SDS011;33181;49.246;7.372;2023-02-28T16:05:24;14.33;;;10.40;;
47429;SDS011;33181;49.246;7.372;2023-02-28T16:08:15;16.70;;;10.80;;
47429;SDS011;33181;49.246;7.372;2023-02-28T16:10:41;14.63;;;10.23;;
47429;SDS011;33181;49.246;7.372;2023-02-28T16:13:08;14.80;;;10.43;;
47429;SDS011;33181;49.246;7.372;2023-02-28T16:15:37;14.43;;;9.97;;
47429;SDS011;33181;49.246;7.372;2023-02-28T16:18:07;14.10;;;10.07;;
47429;SDS011;33181;49.246;7.372;2023-02-28T16:20:36;16.17;;;11.30;;
47429;SDS011;33181;49.246;7.372;2023-02-28T16:23:02;17.40;;;11.13;;
47429;SDS011;33181;49.246;7.372;2023-02-28T16:25:33;17.83;;;11.10;;
47429;SDS011;33181;49.246;7.372;2023-02-28T16:28:05;16.20;;;11.03;;
47429;SDS011;33181;49.246;7.372;2023-02-28T16:30:40;16.00;;;10.30;;
47429;SDS011;33181;49.246;7.372;2023-02-28T16:33:07;15.23;;;10.67;;
47429;SDS011;33181;49.246;7.372;2023-02-28T16:35:34;15.30;;;10.70;;
47429;SDS011;33181;49.246;7.372;2023-02-28T16:37:59;14.90;;;10.17;;
47429;SDS011;33181;49.246;7.372;2023-02-28T16:40:26;15.10;;;10.07;;
47429;SDS011;33181;49.246;7.372;2023-02-28T16:42:55;12.77;;;9.73;;
47429;SDS011;33181;49.246;7.372;2023-02-28T16:45:25;14.93;;;10.40;;
47429;SDS011;33181;49.246;7.372;2023-02-28T16:47:53;18.83;;;11.30;;
47429;SDS011;33181;49.246;7.372;2023-02-28T16:50:27;17.43;;;11.10;;
47429;SDS011;33181;49.246;7.372;2023-02-28T16:52:54;18.17;;;10.97;;
47429;SDS011;33181;49.246;7.372;2023-02-28T16:55:22;16.40;;;10.70;;
47429;SDS011;33181;49.246;7.372;2023-02-28T16:57:56;15.60;;;10.80;;
47429;SDS011;33181;49.246;7.372;2023-02-28T17:00:24;17.03;;;11.00;;
47429;SDS011;33181;49.246;7.372;2023-02-28T17:02:56;18.00;;;11.33;;
47429;SDS011;33181;49.246;7.372;2023-02-28T17:05:22;16.80;;;10.60;;
47429;SDS011;33181;49.246;7.372;2023-02-28T17:07:48;16.03;;;10.70;;
47429;SDS011;33181;49.246;7.372;2023-02-28T17:10:16;15.47;;;10.33;;
47429;SDS011;33181;49.246;7.372;2023-02-28T17:12:44;16.40;;;11.00;;
47429;SDS011;33181;49.246;7.372;2023-02-28T17:15:11;17.17;;;11.20;;
47429;SDS011;33181;49.246;7.372;2023-02-28T17:17:38;20.00;;;11.33;;
47429;SDS011;33181;49.246;7.372;2023-02-28T17:20:05;14.90;;;10.53;;
47429;SDS011;33181;49.246;7.372;2023-02-28T17:22:36;17.20;;;11.70;;
47429;SDS011;33181;49.246;7.372;2023-02-28T17:25:02;17.70;;;11.53;;
47429;SDS011;33181;49.246;7.372;2023-02-28T17:27:28;21.20;;;11.60;;
47429;SDS011;33181;49.246;7.372;2023-02-28T17:29:54;18.87;;;12.60;;
47429;SDS011;33181;49.246;7.372;2023-02-28T17:32:19;20.50;;;12.33;;
47429;SDS011;33181;49.246;7.372;2023-02-28T17:34:45;22.23;;;13.47;;
47429;SDS011;33181;49.246;7.372;2023-02-28T17:37:11;34.77;;;21.60;;
47429;SDS011;33181;49.246;7.372;2023-02-28T17:39:37;32.80;;;18.60;;
47429;SDS011;33181;49.246;7.372;2023-02-28T17:42:02;19.57;;;12.50;;